Time;durP1;ratioP1;P1;durP2;ratioP2;P2;SDS_P1;SDS_P2;PMS_P1;PMS_P2;Temp;Humidity;BMP_temperature;BMP_pressure;BME280_temperature;BME280_humidity;BME280_pressure;Samples;Min_cycle;Max_cycle;Signal;HPM_P1;HPM_P2
2022/12/09 00:01:10;;;;;;;78.32;37.10;;;3.20;99.90;;;;;;4991313;28;20049;-71
2022/12/09 00:03:35;;;;;;;78.68;38.45;;;3.10;99.90;;;;;;4999372;28;20096;-71
2022/12/09 00:06:10;;;;;;;76.28;38.38;;;3.10;99.90;;;;;;4991942;28;20038;-71
2022/12/09 00:08:36;;;;;;;76.72;37.03;;;3.10;99.90;;;;;;4993685;28;20030;-72
2022/12/09 00:11:02;;;;;;;80.15;37.75;;;3.10;99.90;;;;;;4995195;28;20031;-71
2022/12/09 00:13:28;;;;;;;77.07;37.53;;;3.10;99.90;;;;;;4988076;28;20032;-72
2022/12/09 00:15:54;;;;;;;82.07;38.08;;;3.10;99.90;;;;;;4989272;28;20041;-74
2022/12/09 00:18:20;;;;;;;76.25;37.83;;;3.10;99.90;;;;;;4986414;28;20039;-71
2022/12/09 00:20:45;;;;;;;76.03;39.45;;;3.10;99.90;;;;;;4990947;28;20524;-71
2022/12/09 00:23:11;;;;;;;73.53;35.42;;;3.10;99.90;;;;;;4990989;28;20046;-71
2022/12/09 00:25:36;;;;;;;74.72;37.05;;;3.10;99.90;;;;;;4987727;28;20023;-72
2022/12/09 00:28:02;;;;;;;75.63;36.30;;;3.10;99.90;;;;;;4996404;28;20034;-72
2022/12/09 00:30:28;;;;;;;84.28;39.67;;;3.10;99.90;;;;;;4996047;28;20033;-71
2022/12/09 00:32:53;;;;;;;74.55;36.65;;;3.00;99.90;;;;;;4986996;28;20560;-71
2022/12/09 00:35:19;;;;;;;79.32;39.53;;;3.00;99.90;;;;;;4987803;28;20034;-71
2022/12/09 00:37:44;;;;;;;77.05;37.40;;;3.00;99.90;;;;;;4990552;28;20034;-72
2022/12/09 00:40:10;;;;;;;80.25;38.47;;;3.00;99.90;;;;;;4988785;28;20042;-72
2022/12/09 00:42:36;;;;;;;78.15;38.08;;;3.00;99.90;;;;;;4989368;28;20046;-72
2022/12/09 00:45:02;;;;;;;78.05;38.80;;;3.00;99.90;;;;;;4996418;28;20030;-72
2022/12/09 00:47:27;;;;;;;82.45;38.75;;;3.00;99.90;;;;;;4996413;28;20477;-73
2022/12/09 00:49:53;;;;;;;80.22;39.88;;;3.00;99.90;;;;;;4988278;28;20035;-72
2022/12/09 00:52:18;;;;;;;80.40;37.55;;;3.10;99.90;;;;;;4998471;28;20034;-73
2022/12/09 00:54:44;;;;;;;84.35;39.90;;;3.10;99.90;;;;;;4989392;28;20033;-72
2022/12/09 00:57:09;;;;;;;80.05;39.80;;;3.00;99.90;;;;;;4998092;28;20022;-72
2022/12/09 00:59:35;;;;;;;80.05;38.78;;;3.10;99.90;;;;;;4993258;28;20366;-70
2022/12/09 01:02:00;;;;;;;82.50;38.75;;;3.10;99.90;;;;;;4987371;28;20034;-70
2022/12/09 01:04:26;;;;;;;81.68;39.08;;;3.10;99.90;;;;;;4984119;28;20073;-70
2022/12/09 01:06:51;;;;;;;82.05;40.70;;;3.10;99.90;;;;;;4988974;28;20058;-71
2022/12/09 01:09:17;;;;;;;80.22;40.03;;;3.10;99.90;;;;;;4986370;28;20030;-70
2022/12/09 01:11:43;;;;;;;86.72;40.10;;;3.10;99.90;;;;;;4989203;28;20042;-72
2022/12/09 01:14:10;;;;;;;78.25;39.75;;;3.10;99.90;;;;;;4992259;28;20398;-72
2022/12/09 01:16:36;;;;;;;80.20;38.13;;;3.10;99.90;;;;;;4987200;28;20018;-72
2022/12/09 01:19:05;;;;;;;75.65;38.38;;;3.10;99.90;;;;;;4985517;28;20042;-72
2022/12/09 01:21:31;;;;;;;84.95;39.90;;;3.10;99.90;;;;;;4996266;28;20025;-72
2022/12/09 01:23:57;;;;;;;77.25;37.78;;;3.10;99.90;;;;;;4995484;28;20109;-72
2022/12/09 01:26:23;;;;;;;88.88;40.42;;;3.10;99.90;;;;;;4991672;28;20102;-73
2022/12/09 01:28:51;;;;;;;90.18;41.33;;;3.10;99.90;;;;;;4999287;28;20037;-72
2022/12/09 01:31:21;;;;;;;81.47;38.83;;;3.10;99.90;;;;;;5002931;28;20025;-71
2022/12/09 01:33:46;;;;;;;79.70;40.47;;;3.10;99.90;;;;;;5002339;28;20022;-71
2022/12/09 01:36:18;;;;;;;78.45;39.50;;;3.10;99.90;;;;;;5004448;28;20030;-71
2022/12/09 01:38:45;;;;;;;81.88;40.42;;;3.10;99.90;;;;;;4994091;28;20089;-71
2022/12/09 01:41:11;;;;;;;82.35;41.47;;;3.10;99.90;;;;;;4992925;28;20030;-71
2022/12/09 01:43:38;;;;;;;79.13;39.55;;;3.10;99.90;;;;;;4995427;28;20041;-71
2022/12/09 01:46:04;;;;;;;73.60;36.53;;;3.10;99.90;;;;;;5002659;28;20123;-70
2022/12/09 01:48:33;;;;;;;84.03;42.35;;;3.20;99.90;;;;;;5001671;28;20478;-70
2022/12/09 01:51:08;;;;;;;85.32;40.92;;;3.10;99.90;;;;;;4992923;28;20501;-71
2022/12/09 01:53:37;;;;;;;85.13;42.05;;;3.20;99.90;;;;;;5001695;28;20054;-71
2022/12/09 01:56:09;;;;;;;93.20;42.85;;;3.20;99.90;;;;;;5000022;28;20080;-71
2022/12/09 01:58:35;;;;;;;86.30;42.00;;;3.20;99.90;;;;;;4992333;28;20038;-71
2022/12/09 02:01:00;;;;;;;85.18;41.35;;;3.20;99.90;;;;;;5005940;28;20272;-71
2022/12/09 02:03:26;;;;;;;83.25;40.53;;;3.20;99.90;;;;;;5000231;28;20033;-71
2022/12/09 02:05:52;;;;;;;86.45;40.83;;;3.20;99.90;;;;;;5004486;28;20027;-72
2022/12/09 02:08:18;;;;;;;86.15;42.38;;;3.20;99.90;;;;;;4995156;28;20027;-71
2022/12/09 02:11:24;;;;;;;86.53;41.90;;;3.20;99.90;;;;;;4988865;28;20018;-71
2022/12/09 02:14:17;;;;;;;87.38;41.58;;;3.30;99.90;;;;;;4991347;28;20061;-71
2022/12/09 02:17:06;;;;;;;89.78;41.47;;;3.30;99.90;;;;;;4992103;28;20038;-71
2022/12/09 02:20:02;;;;;;;88.00;41.25;;;3.20;99.90;;;;;;4994228;28;20051;-71
2022/12/09 02:22:37;;;;;;;84.53;40.70;;;3.30;99.90;;;;;;4995162;28;20080;-71
2022/12/09 02:25:18;;;;;;;88.35;42.22;;;3.30;99.90;;;;;;5000510;28;20062;-71
2022/12/09 02:28:07;;;;;;;88.32;41.30;;;3.30;99.90;;;;;;4990328;28;20027;-71
2022/12/09 02:30:46;;;;;;;83.53;41.85;;;3.30;99.90;;;;;;4993908;28;20037;-72
2022/12/09 02:33:38;;;;;;;86.28;42.42;;;3.30;99.90;;;;;;4991973;28;20487;-71
2022/12/09 02:36:14;;;;;;;81.88;40.63;;;3.30;99.90;;;;;;5002641;28;20096;-71
2022/12/09 02:38:41;;;;;;;88.90;40.97;;;3.30;99.90;;;;;;4997225;28;20050;-71
2022/12/09 02:41:18;;;;;;;89.43;42.50;;;3.30;99.90;;;;;;4995294;28;20020;-71
2022/12/09 02:43:55;;;;;;;81.00;40.97;;;3.40;99.90;;;;;;4999518;28;20071;-71
2022/12/09 02:46:22;;;;;;;82.50;39.70;;;3.30;99.90;;;;;;4995906;28;20031;-72
2022/12/09 02:48:53;;;;;;;78.10;39.60;;;3.30;99.90;;;;;;5000431;28;20038;-71
2022/12/09 02:51:20;;;;;;;78.78;40.95;;;3.30;99.90;;;;;;4993186;28;20099;-71
2022/12/09 02:53:51;;;;;;;85.68;41.75;;;3.30;99.90;;;;;;5002929;28;20114;-71
2022/12/09 02:56:18;;;;;;;89.07;42.03;;;3.20;99.90;;;;;;5004756;28;20074;-71
2022/12/09 02:58:43;;;;;;;93.45;42.40;;;3.20;99.90;;;;;;4997307;28;20030;-71
2022/12/09 03:01:48;;;;;;;93.30;43.20;;;3.20;99.90;;;;;;4996887;28;20117;-71
2022/12/09 03:04:20;;;;;;;82.88;42.10;;;3.20;99.90;;;;;;4982183;28;20073;-71
2022/12/09 03:06:51;;;;;;;93.93;42.40;;;3.20;99.90;;;;;;4994054;28;20026;-70
2022/12/09 03:09:24;;;;;;;92.63;41.88;;;3.10;99.90;;;;;;4994781;28;20494;-71
2022/12/09 03:11:50;;;;;;;90.82;41.50;;;3.10;99.90;;;;;;4982003;28;20027;-71
2022/12/09 03:14:28;;;;;;;88.90;41.92;;;3.10;99.90;;;;;;4989328;28;20045;-70
2022/12/09 03:17:17;;;;;;;85.63;40.28;;;3.10;99.90;;;;;;4985902;28;20026;-71
2022/12/09 03:19:48;;;;;;;90.88;41.58;;;3.00;99.90;;;;;;4993742;28;20050;-71
2022/12/09 03:22:19;;;;;;;94.07;42.00;;;3.00;99.90;;;;;;4992363;28;20034;-71
2022/12/09 03:24:51;;;;;;;89.10;42.33;;;3.00;99.90;;;;;;4991334;28;20022;-70
2022/12/09 03:27:48;;;;;;;93.95;43.22;;;3.00;99.90;;;;;;4992439;28;20053;-71
2022/12/09 03:30:15;;;;;;;85.13;40.03;;;3.00;99.90;;;;;;4976051;28;20475;-71
2022/12/09 03:32:43;;;;;;;83.88;41.42;;;3.00;99.90;;;;;;4989872;28;20034;-71
2022/12/09 03:35:13;;;;;;;92.90;42.58;;;3.00;99.90;;;;;;4994472;28;20031;-71
2022/12/09 03:37:42;;;;;;;87.07;41.25;;;3.00;99.90;;;;;;4994617;28;20084;-70
2022/12/09 03:40:12;;;;;;;84.90;39.85;;;2.90;99.90;;;;;;4993753;28;20036;-71
2022/12/09 03:42:58;;;;;;;80.60;38.58;;;2.90;99.90;;;;;;4992384;28;20555;-71
2022/12/09 03:45:25;;;;;;;86.75;39.40;;;2.90;99.90;;;;;;4991829;28;20084;-70
2022/12/09 03:47:50;;;;;;;81.50;39.85;;;2.80;99.90;;;;;;4994674;28;20027;-71
2022/12/09 03:50:17;;;;;;;83.55;39.92;;;2.80;99.90;;;;;;5004793;28;20036;-70
2022/12/09 03:53:03;;;;;;;84.20;39.42;;;2.80;99.90;;;;;;4993528;28;20077;-71
2022/12/09 03:55:59;;;;;;;86.43;39.50;;;2.80;99.90;;;;;;4994167;28;20026;-71
2022/12/09 03:58:29;;;;;;;81.85;38.72;;;2.80;99.90;;;;;;4991908;28;20382;-71
2022/12/09 04:00:55;;;;;;;93.55;40.22;;;2.90;99.90;;;;;;4980698;28;20026;-71
2022/12/09 04:03:21;;;;;;;85.95;38.08;;;2.80;99.90;;;;;;4991409;28;20038;-71
2022/12/09 04:05:46;;;;;;;87.18;39.38;;;2.80;99.90;;;;;;5000989;28;20429;-71
2022/12/09 04:08:12;;;;;;;84.88;38.45;;;2.80;99.90;;;;;;4995738;28;20038;-71
2022/12/09 04:10:38;;;;;;;86.18;37.75;;;2.80;99.90;;;;;;4992863;28;20030;-71
2022/12/09 04:13:03;;;;;;;86.18;37.95;;;2.80;99.90;;;;;;4990587;28;20034;-71
2022/12/09 04:15:29;;;;;;;78.15;38.00;;;2.80;99.90;;;;;;4998414;28;20474;-70
2022/12/09 04:17:54;;;;;;;85.68;37.65;;;2.80;99.90;;;;;;4992669;28;20390;-72
2022/12/09 04:20:20;;;;;;;88.50;36.67;;;2.80;99.90;;;;;;4997616;28;20047;-72
2022/12/09 04:22:45;;;;;;;77.82;37.25;;;2.80;99.90;;;;;;4988086;28;20034;-72
2022/12/09 04:25:12;;;;;;;83.82;37.95;;;2.80;99.90;;;;;;4994165;28;20046;-72
2022/12/09 04:27:38;;;;;;;82.60;38.25;;;2.80;99.90;;;;;;4993747;28;20101;-72
2022/12/09 04:30:04;;;;;;;87.53;37.42;;;2.80;99.90;;;;;;4993469;28;20080;-73
2022/12/09 04:32:30;;;;;;;83.47;35.40;;;2.80;99.90;;;;;;4987594;28;20462;-72
2022/12/09 04:34:56;;;;;;;84.75;37.00;;;2.80;99.90;;;;;;4990442;28;20060;-72
2022/12/09 04:37:21;;;;;;;82.90;35.80;;;2.80;99.90;;;;;;4997469;28;20034;-72
2022/12/09 04:39:47;;;;;;;80.25;35.35;;;2.80;99.90;;;;;;4991308;28;20034;-72
2022/12/09 04:42:12;;;;;;;81.22;36.13;;;2.80;99.90;;;;;;4992195;28;20800;-72
2022/12/09 04:44:38;;;;;;;78.82;35.17;;;2.80;99.90;;;;;;4999099;28;20018;-72
2022/12/09 04:47:03;;;;;;;78.15;35.45;;;2.80;99.90;;;;;;4986141;28;20117;-72
2022/12/09 04:49:30;;;;;;;77.03;34.13;;;2.80;99.90;;;;;;4990621;28;20030;-73
2022/12/09 04:51:56;;;;;;;79.07;35.70;;;2.80;99.90;;;;;;4982815;28;20072;-72
2022/12/09 04:54:21;;;;;;;77.95;34.67;;;2.90;99.90;;;;;;4991458;28;20466;-72
2022/12/09 04:56:48;;;;;;;83.28;34.58;;;2.80;99.90;;;;;;4991197;28;20030;-72
2022/12/09 04:59:13;;;;;;;80.70;35.40;;;2.90;99.90;;;;;;4995664;28;20037;-73
2022/12/09 05:01:39;;;;;;;79.25;33.97;;;2.90;99.90;;;;;;4994156;28;20030;-72
2022/12/09 05:04:05;;;;;;;73.95;33.55;;;2.90;99.90;;;;;;4990045;28;20073;-72
2022/12/09 05:06:31;;;;;;;80.28;34.60;;;2.90;99.90;;;;;;4991815;28;20023;-72
2022/12/09 05:08:57;;;;;;;74.45;31.52;;;2.90;99.90;;;;;;4996637;28;20034;-72
2022/12/09 05:11:23;;;;;;;70.78;30.80;;;2.90;99.90;;;;;;4989905;28;20022;-73
2022/12/09 05:13:49;;;;;;;79.22;34.13;;;2.90;99.90;;;;;;4999036;28;20084;-72
2022/12/09 05:16:17;;;;;;;70.88;30.20;;;2.90;99.90;;;;;;4998900;28;20102;-72
2022/12/09 05:18:43;;;;;;;68.20;30.05;;;2.90;99.90;;;;;;5001757;28;20057;-72
2022/12/09 05:21:13;;;;;;;58.25;25.52;;;2.90;99.90;;;;;;4993342;28;20100;-74
2022/12/09 05:23:39;;;;;;;56.65;23.70;;;2.90;99.90;;;;;;4992852;28;20057;-72
2022/12/09 05:26:07;;;;;;;60.58;26.35;;;2.80;99.90;;;;;;4992208;28;20034;-73
2022/12/09 05:28:32;;;;;;;65.32;27.50;;;2.80;99.90;;;;;;4998550;28;20064;-73
2022/12/09 05:31:05;;;;;;;65.82;27.40;;;2.80;99.90;;;;;;4993988;28;20139;-72
2022/12/09 05:33:31;;;;;;;63.58;27.90;;;2.80;99.90;;;;;;4994102;28;20172;-72
2022/12/09 05:35:57;;;;;;;70.43;31.60;;;2.90;99.90;;;;;;4991568;28;20113;-72
2022/12/09 05:38:23;;;;;;;73.72;32.28;;;2.80;99.90;;;;;;4992698;28;20497;-72
2022/12/09 05:40:49;;;;;;;83.40;37.10;;;2.80;99.90;;;;;;4993169;28;20057;-72
2022/12/09 05:43:14;;;;;;;86.38;35.03;;;2.80;99.90;;;;;;5003717;28;20084;-72
2022/12/09 05:45:40;;;;;;;78.18;35.42;;;2.80;99.90;;;;;;4999453;28;20097;-72
2022/12/09 05:48:06;;;;;;;80.50;35.70;;;2.80;99.90;;;;;;4990948;28;20045;-72
2022/12/09 05:50:32;;;;;;;77.63;35.00;;;2.70;99.90;;;;;;4991000;28;20022;-71
2022/12/09 05:52:58;;;;;;;80.45;34.45;;;2.70;99.90;;;;;;4996854;28;20398;-71
2022/12/09 05:55:24;;;;;;;80.40;35.30;;;2.70;99.90;;;;;;4995502;28;20026;-71
2022/12/09 05:57:50;;;;;;;83.82;36.17;;;2.70;99.90;;;;;;4998219;28;20034;-71
2022/12/09 06:00:16;;;;;;;82.95;37.92;;;2.60;99.90;;;;;;4990822;28;20147;-71
2022/12/09 06:02:41;;;;;;;81.28;37.45;;;2.60;99.90;;;;;;4999597;28;20038;-71
2022/12/09 06:05:07;;;;;;;92.55;40.38;;;2.60;99.90;;;;;;4993086;28;20093;-72
2022/12/09 06:07:33;;;;;;;90.78;40.10;;;2.60;99.90;;;;;;4997483;28;20038;-71
2022/12/09 06:09:59;;;;;;;87.85;38.42;;;2.60;99.90;;;;;;5001000;28;20030;-71
2022/12/09 06:12:25;;;;;;;87.70;38.70;;;2.60;99.90;;;;;;4989167;28;20060;-71
2022/12/09 06:14:51;;;;;;;86.78;38.85;;;2.50;99.90;;;;;;4990761;28;20032;-71
2022/12/09 06:17:16;;;;;;;82.22;37.30;;;2.50;99.90;;;;;;4976007;28;20050;-71
2022/12/09 06:19:42;;;;;;;86.95;39.55;;;2.50;99.90;;;;;;4992185;28;20445;-70
2022/12/09 06:22:08;;;;;;;85.78;37.33;;;2.50;99.90;;;;;;4999491;28;20030;-71
2022/12/09 06:24:34;;;;;;;88.43;37.95;;;2.40;99.90;;;;;;4995336;28;20490;-70
2022/12/09 06:27:00;;;;;;;84.68;38.28;;;2.40;99.90;;;;;;4989795;28;20035;-71
2022/12/09 06:29:25;;;;;;;82.43;38.35;;;2.30;99.90;;;;;;4995466;28;20794;-71
2022/12/09 06:31:51;;;;;;;80.90;36.42;;;2.30;99.90;;;;;;4992570;28;20026;-71
2022/12/09 06:34:17;;;;;;;87.07;37.38;;;2.20;99.90;;;;;;4992671;28;20037;-71
2022/12/09 06:36:42;;;;;;;80.18;34.13;;;2.10;99.90;;;;;;4993525;28;20061;-72
2022/12/09 06:39:08;;;;;;;80.85;35.90;;;1.90;99.90;;;;;;4999260;28;20062;-70
2022/12/09 06:41:34;;;;;;;76.95;34.10;;;1.80;99.90;;;;;;4991026;28;20026;-71
2022/12/09 06:43:59;;;;;;;84.22;36.70;;;1.70;99.90;;;;;;4993528;28;20069;-71
2022/12/09 06:46:26;;;;;;;80.38;36.42;;;1.50;99.90;;;;;;4990998;28;20022;-70
2022/12/09 06:48:53;;;;;;;84.22;35.63;;;1.40;99.90;;;;;;4994995;28;20389;-71
2022/12/09 06:51:20;;;;;;;86.35;35.70;;;1.30;99.90;;;;;;4994791;28;20041;-71
2022/12/09 06:53:46;;;;;;;84.68;36.70;;;1.20;99.90;;;;;;4993992;28;20022;-71
2022/12/09 06:56:12;;;;;;;88.03;38.85;;;1.10;99.90;;;;;;4993000;28;20030;-71
2022/12/09 06:58:39;;;;;;;92.65;38.30;;;1.00;99.90;;;;;;4993717;28;20026;-71
2022/12/09 07:01:12;;;;;;;90.05;36.40;;;1.00;99.90;;;;;;4993903;28;20026;-71
2022/12/09 07:03:38;;;;;;;90.82;38.10;;;0.90;99.90;;;;;;4994423;28;20073;-70
2022/12/09 07:06:03;;;;;;;90.53;37.35;;;0.80;99.90;;;;;;4991869;28;20030;-71
2022/12/09 07:08:29;;;;;;;88.80;35.83;;;0.70;99.90;;;;;;4992915;28;20519;-72
2022/12/09 07:10:55;;;;;;;83.70;36.22;;;0.60;99.90;;;;;;4991848;28;20022;-71
2022/12/09 07:13:20;;;;;;;82.32;33.17;;;0.60;99.90;;;;;;4997424;28;20063;-71
2022/12/09 07:15:46;;;;;;;84.00;33.72;;;0.50;99.90;;;;;;4989706;28;20109;-71
2022/12/09 07:18:11;;;;;;;82.88;34.58;;;0.40;99.90;;;;;;4996790;28;20038;-72
2022/12/09 07:20:37;;;;;;;84.72;35.15;;;0.40;99.90;;;;;;4996581;28;20054;-71
2022/12/09 07:23:02;;;;;;;88.20;36.85;;;0.30;99.90;;;;;;4988580;28;20109;-71
2022/12/09 07:25:28;;;;;;;88.75;39.10;;;0.20;99.90;;;;;;4990868;28;20088;-71
2022/12/09 07:27:53;;;;;;;95.50;35.45;;;0.20;99.90;;;;;;4989705;28;20136;-71
2022/12/09 07:30:19;;;;;;;89.88;35.88;;;0.10;99.90;;;;;;4982097;28;20117;-71
2022/12/09 07:32:44;;;;;;;94.50;37.42;;;0.10;99.90;;;;;;4991938;28;20441;-71
2022/12/09 07:35:10;;;;;;;96.88;37.38;;;0.10;99.90;;;;;;4999196;28;20030;-71
2022/12/09 07:37:35;;;;;;;87.40;36.35;;;0.10;99.90;;;;;;4988243;28;20030;-71
2022/12/09 07:40:01;;;;;;;92.35;37.53;;;0.10;99.90;;;;;;4980524;28;20505;-71
2022/12/09 07:42:26;;;;;;;88.93;36.88;;;0.10;99.90;;;;;;4993961;28;20497;-71
2022/12/09 07:44:52;;;;;;;76.50;32.92;;;0.00;99.90;;;;;;4986659;28;20034;-71
2022/12/09 07:47:18;;;;;;;71.97;31.50;;;0.00;99.90;;;;;;4992895;28;20042;-72
2022/12/09 07:49:43;;;;;;;83.53;34.42;;;0.00;99.90;;;;;;4991503;28;20498;-73
2022/12/09 07:52:11;;;;;;;78.05;33.65;;;0.00;99.90;;;;;;4994485;28;20030;-71
2022/12/09 07:54:36;;;;;;;90.22;35.95;;;0.00;99.90;;;;;;4989579;28;20034;-71
2022/12/09 07:57:02;;;;;;;81.35;33.13;;;0.10;99.90;;;;;;4998693;28;20422;-71
2022/12/09 07:59:28;;;;;;;83.97;35.92;;;0.10;99.90;;;;;;4992956;28;20031;-71
2022/12/09 08:01:53;;;;;;;83.72;34.85;;;0.10;99.90;;;;;;4986702;28;20390;-72
2022/12/09 08:04:19;;;;;;;87.50;36.28;;;0.10;99.90;;;;;;4990537;28;20038;-71
2022/12/09 08:06:44;;;;;;;93.70;35.70;;;0.20;99.90;;;;;;4988878;28;20123;-71
2022/12/09 08:09:12;;;;;;;89.53;37.67;;;0.20;99.90;;;;;;4990072;28;20171;-71
2022/12/09 08:11:38;;;;;;;90.70;38.00;;;0.30;99.90;;;;;;4998449;28;20026;-71
2022/12/09 08:14:06;;;;;;;94.55;37.10;;;0.30;99.90;;;;;;5007841;28;20034;-71
2022/12/09 08:16:32;;;;;;;94.22;36.97;;;0.40;99.90;;;;;;4988000;28;20477;-71
2022/12/09 08:18:57;;;;;;;89.78;35.70;;;0.50;99.90;;;;;;4991302;28;20034;-71
2022/12/09 08:21:26;;;;;;;99.43;37.53;;;0.60;99.90;;;;;;4996850;28;20031;-72
2022/12/09 08:23:53;;;;;;;90.43;35.53;;;0.60;99.90;;;;;;4989964;28;20046;-72
2022/12/09 08:26:20;;;;;;;90.07;37.38;;;0.70;99.90;;;;;;4981416;28;20042;-72
2022/12/09 08:28:46;;;;;;;87.25;34.35;;;0.80;99.90;;;;;;4986863;28;20491;-72
2022/12/09 08:31:16;;;;;;;89.88;36.00;;;0.90;99.90;;;;;;4994512;28;20028;-71
2022/12/09 08:33:42;;;;;;;89.63;36.30;;;1.00;99.90;;;;;;4989055;28;20659;-71
2022/12/09 08:36:14;;;;;;;87.82;35.53;;;1.10;99.90;;;;;;4991725;28;20061;-71
2022/12/09 08:38:40;;;;;;;86.03;35.45;;;1.10;99.90;;;;;;4989736;28;20025;-71
2022/12/09 08:41:18;;;;;;;93.53;34.95;;;1.20;99.90;;;;;;4990975;28;20053;-71
2022/12/09 08:43:44;;;;;;;85.78;34.33;;;1.30;99.90;;;;;;4978578;28;20491;-71
2022/12/09 08:46:10;;;;;;;84.13;33.75;;;1.30;99.90;;;;;;4983739;28;20030;-72
2022/12/09 08:48:37;;;;;;;78.47;31.27;;;1.40;99.90;;;;;;4985950;28;20026;-71
2022/12/09 08:51:03;;;;;;;98.47;36.40;;;1.50;99.90;;;;;;4990987;28;20057;-71
2022/12/09 08:53:29;;;;;;;86.10;35.95;;;1.60;99.90;;;;;;5002239;28;20038;-71
2022/12/09 08:55:55;;;;;;;101.57;35.22;;;1.70;99.90;;;;;;4978302;28;20845;-73
2022/12/09 08:58:20;;;;;;;90.00;35.78;;;1.90;99.90;;;;;;4993046;28;20033;-72
2022/12/09 09:00:46;;;;;;;86.18;36.38;;;2.10;99.90;;;;;;4983858;28;20503;-72
2022/12/09 09:03:11;;;;;;;93.38;36.47;;;2.10;99.90;;;;;;4988332;28;20038;-71
2022/12/09 09:05:37;;;;;;;98.90;36.63;;;2.10;99.90;;;;;;4987665;28;20034;-71
2022/12/09 09:08:02;;;;;;;86.55;33.80;;;2.10;99.90;;;;;;4993392;28;20041;-71
2022/12/09 09:10:28;;;;;;;83.13;34.90;;;2.10;99.90;;;;;;4994420;28;20033;-71
2022/12/09 09:12:54;;;;;;;92.22;34.35;;;2.00;99.90;;;;;;4985738;28;20042;-71
2022/12/09 09:15:21;;;;;;;86.35;33.55;;;1.90;99.90;;;;;;4990460;28;20018;-71
2022/12/09 09:17:46;;;;;;;92.95;34.85;;;1.80;99.90;;;;;;4986519;28;20077;-71
2022/12/09 09:20:12;;;;;;;93.05;37.08;;;1.70;99.90;;;;;;5001210;28;20042;-71
2022/12/09 09:22:37;;;;;;;93.47;35.53;;;1.70;99.90;;;;;;4986469;28;20044;-71
2022/12/09 09:25:03;;;;;;;84.78;34.90;;;1.60;99.90;;;;;;4990332;28;20019;-71
2022/12/09 09:27:29;;;;;;;86.88;35.42;;;1.60;99.90;;;;;;4983954;28;20034;-71
2022/12/09 09:29:55;;;;;;;87.75;33.58;;;1.60;99.90;;;;;;4983230;28;20057;-72
2022/12/09 09:32:20;;;;;;;94.90;35.70;;;1.60;99.90;;;;;;4986288;28;20046;-71
2022/12/09 09:34:48;;;;;;;98.47;37.63;;;1.80;99.90;;;;;;4989322;28;20446;-72
2022/12/09 09:37:14;;;;;;;84.28;35.63;;;1.90;99.90;;;;;;4990396;28;20394;-71
2022/12/09 09:39:40;;;;;;;88.35;37.33;;;2.00;99.90;;;;;;4992938;28;20022;-71
2022/12/09 09:42:14;;;;;;;90.53;36.22;;;2.10;99.90;;;;;;4984746;28;20031;-72
2022/12/09 09:44:48;;;;;;;90.05;36.03;;;2.30;99.90;;;;;;4989957;28;20497;-71
2022/12/09 09:47:41;;;;;;;78.32;32.83;;;2.40;99.90;;;;;;5001240;28;20061;-71
2022/12/09 09:51:03;;;;;;;71.72;28.73;;;2.40;99.90;;;;;;4991121;28;20038;-70
2022/12/09 09:53:31;;;;;;;72.47;28.40;;;2.40;99.90;;;;;;4989892;28;20494;-71
2022/12/09 09:56:18;;;;;;;72.70;28.80;;;2.40;99.90;;;;;;4991309;28;20029;-72
2022/12/09 09:58:53;;;;;;;72.28;28.00;;;2.40;99.90;;;;;;4994207;28;20022;-72
2022/12/09 10:01:21;;;;;;;76.63;30.98;;;2.60;99.90;;;;;;4993750;28;20062;-72
2022/12/09 10:04:16;;;;;;;82.93;29.50;;;2.70;99.90;;;;;;4996386;28;20033;-71
2022/12/09 10:06:54;;;;;;;80.45;30.75;;;2.90;99.90;;;;;;4995162;28;20029;-72
2022/12/09 10:09:29;;;;;;;73.43;30.35;;;3.00;99.90;;;;;;4990715;28;20112;-71
2022/12/09 10:12:09;;;;;;;69.53;27.92;;;3.00;99.90;;;;;;5000612;28;20372;-72
2022/12/09 10:14:40;;;;;;;72.13;29.15;;;3.00;99.90;;;;;;4979749;28;20031;-72
2022/12/09 10:17:27;;;;;;;78.25;29.73;;;3.10;99.90;;;;;;4992698;28;20022;-71
2022/12/09 10:20:11;;;;;;;71.50;30.83;;;3.10;99.90;;;;;;4995777;28;20046;-72
2022/12/09 10:22:51;;;;;;;67.85;29.33;;;3.00;99.90;;;;;;4995822;28;20125;-72
2022/12/09 10:25:22;;;;;;;70.47;28.02;;;3.10;99.90;;;;;;4994750;28;20027;-72
2022/12/09 10:27:55;;;;;;;70.88;29.45;;;3.10;99.90;;;;;;4991880;28;20030;-72
2022/12/09 10:30:21;;;;;;;62.22;26.75;;;3.10;99.90;;;;;;4994925;28;20076;-71
2022/12/09 10:32:47;;;;;;;70.75;29.20;;;3.00;99.90;;;;;;4993150;28;20038;-71
2022/12/09 10:35:25;;;;;;;65.18;27.20;;;3.00;99.90;;;;;;4991240;28;20026;-72
2022/12/09 10:37:53;;;;;;;59.10;26.75;;;2.90;99.90;;;;;;4985004;28;20026;-72
2022/12/09 10:40:24;;;;;;;62.92;27.38;;;2.80;99.90;;;;;;4987256;28;20058;-71
2022/12/09 10:45:53;;;;;;;62.90;25.63;;;2.80;99.90;;;;;;4973527;28;20053;-72
2022/12/09 10:48:30;;;;;;;66.28;27.10;;;2.80;99.90;;;;;;4977045;28;20045;-72
2022/12/09 10:51:01;;;;;;;55.17;25.02;;;2.80;99.90;;;;;;4988700;28;20405;-72
2022/12/09 10:53:28;;;;;;;63.60;27.55;;;2.90;99.90;;;;;;4993236;28;20387;-72
2022/12/09 10:55:56;;;;;;;64.13;28.00;;;2.90;99.90;;;;;;4994300;28;20172;-71
2022/12/09 10:58:24;;;;;;;61.70;26.33;;;3.00;99.90;;;;;;4983725;28;20085;-71
2022/12/09 11:00:57;;;;;;;62.30;27.02;;;3.10;99.90;;;;;;4987800;28;20045;-71
2022/12/09 11:03:28;;;;;;;59.83;28.25;;;3.30;99.90;;;;;;4994106;28;20042;-70
2022/12/09 11:06:24;;;;;;;60.35;28.05;;;3.40;99.90;;;;;;4990323;28;20378;-71
2022/12/09 11:09:00;;;;;;;60.10;27.40;;;3.50;99.90;;;;;;4987835;28;20406;-72
2022/12/09 11:11:47;;;;;;;63.55;27.88;;;3.60;99.90;;;;;;4985923;28;20384;-72
2022/12/09 11:14:21;;;;;;;60.42;26.40;;;3.70;99.90;;;;;;4985559;28;20096;-71
2022/12/09 11:17:08;;;;;;;61.55;27.55;;;3.80;99.90;;;;;;4980986;28;20061;-71
2022/12/09 11:19:35;;;;;;;64.55;27.38;;;3.90;99.90;;;;;;4978232;28;20042;-70
2022/12/09 11:22:38;;;;;;;65.53;28.63;;;3.90;99.90;;;;;;4975212;28;20045;-71
2022/12/09 11:25:20;;;;;;;62.90;25.67;;;3.90;99.90;;;;;;5004339;28;20027;-71
2022/12/09 11:28:05;;;;;;;52.90;23.83;;;3.90;99.90;;;;;;4993637;28;20081;-71
2022/12/09 11:30:41;;;;;;;63.38;26.40;;;3.70;99.90;;;;;;4995543;28;20034;-72
2022/12/09 11:33:29;;;;;;;61.08;26.95;;;3.60;99.90;;;;;;4993555;28;20498;-71
2022/12/09 11:36:01;;;;;;;57.13;24.75;;;3.50;99.90;;;;;;4989942;28;20045;-71
2022/12/09 11:38:30;;;;;;;;;;;3.40;99.90;;;;;;4998060;28;20026;-72
2022/12/09 11:41:01;;;;;;;66.47;27.13;;;3.20;99.90;;;;;;4985229;28;19914;-72
2022/12/09 11:43:38;;;;;;;63.00;26.95;;;3.20;99.90;;;;;;4999160;28;20033;-72
2022/12/09 11:46:11;;;;;;;67.22;27.70;;;3.30;99.90;;;;;;4991566;28;20501;-71
2022/12/09 11:48:53;;;;;;;65.10;26.83;;;3.20;99.90;;;;;;4988491;28;20038;-72
2022/12/09 11:51:24;;;;;;;68.07;25.85;;;3.20;99.90;;;;;;4991633;28;20026;-71
2022/12/09 11:53:55;;;;;;;56.45;25.02;;;3.20;99.90;;;;;;4995870;28;20018;-72
2022/12/09 11:56:26;;;;;;;63.00;25.27;;;3.20;99.90;;;;;;4992908;28;20038;-71
2022/12/09 11:59:04;;;;;;;58.45;25.80;;;3.20;99.90;;;;;;4998518;28;20023;-71
2022/12/09 12:01:57;;;;;;;60.15;24.75;;;3.20;99.90;;;;;;4987695;28;20046;-71
2022/12/09 12:04:49;;;;;;;57.70;24.65;;;3.10;99.90;;;;;;4998624;28;20034;-71
2022/12/09 12:07:28;;;;;;;58.63;24.23;;;3.10;99.90;;;;;;5000325;28;20030;-72
2022/12/09 12:09:56;;;;;;;59.40;24.83;;;3.10;99.90;;;;;;4985287;28;20375;-71
2022/12/09 12:12:44;;;;;;;59.80;26.40;;;3.00;99.90;;;;;;4990517;28;20026;-72
2022/12/09 12:15:16;;;;;;;56.63;24.98;;;3.00;99.90;;;;;;4990235;28;20035;-72
2022/12/09 12:17:50;;;;;;;63.83;25.73;;;3.00;99.90;;;;;;4988690;28;20095;-71
2022/12/09 12:20:16;;;;;;;59.47;25.02;;;3.00;99.90;;;;;;4989533;28;20174;-72
2022/12/09 12:22:50;;;;;;;55.88;21.85;;;3.10;99.90;;;;;;4995786;28;20046;-72
2022/12/09 12:26:17;;;;;;;50.45;23.67;;;3.00;99.90;;;;;;4999958;28;20113;-71
2022/12/09 12:29:18;;;;;;;51.85;22.50;;;3.00;99.90;;;;;;4983096;28;20026;-71
2022/12/09 12:32:07;;;;;;;50.67;22.83;;;3.00;99.90;;;;;;4978057;28;20019;-72
2022/12/09 12:35:09;;;;;;;56.35;24.45;;;2.90;99.90;;;;;;4990065;28;20029;-72
2022/12/09 12:38:08;;;;;;;54.25;23.60;;;2.90;99.90;;;;;;4996624;28;20037;-72
2022/12/09 12:40:53;;;;;;;49.28;24.15;;;2.90;99.90;;;;;;4989544;28;20348;-71
2022/12/09 12:47:03;;;;;;;57.83;25.15;;;3.00;99.90;;;;;;4986264;28;20056;-71
2022/12/09 12:49:53;;;;;;;53.35;22.38;;;3.00;99.90;;;;;;4985110;28;20026;-72
2022/12/09 12:52:30;;;;;;;53.22;24.27;;;3.00;99.90;;;;;;4990246;28;20385;-71
2022/12/09 12:55:18;;;;;;;53.95;25.30;;;3.00;99.90;;;;;;4997211;28;20029;-72
2022/12/09 12:57:52;;;;;;;52.70;23.85;;;3.00;99.90;;;;;;4992203;28;20058;-72
2022/12/09 13:00:22;;;;;;;60.25;25.42;;;3.00;99.90;;;;;;5001985;28;20036;-72
2022/12/09 13:03:05;;;;;;;53.63;23.38;;;3.00;99.90;;;;;;4986202;28;20168;-71